Time;durP1;ratioP1;P1;durP2;ratioP2;P2;SDS_P1;SDS_P2;PMS_P1;PMS_P2;Temp;Humidity;BMP_temperature;BMP_pressure;BME280_temperature;BME280_humidity;BME280_pressure;Samples;Min_cycle;Max_cycle;Signal;HPM_P1;HPM_P2
2023/01/28 00:01:37;;;;;;;3.10;2.07;;;;;;;;;;5038837;28;20238;-54
2023/01/28 00:04:04;;;;;;;5.63;3.67;;;;;;;;;;5036993;28;20236;-54
2023/01/28 00:06:30;;;;;;;6.00;3.03;;;;;;;;;;5039375;28;20759;-54
2023/01/28 00:08:56;;;;;;;4.33;2.80;;;;;;;;;;5039141;28;20244;-54
2023/01/28 00:11:23;;;;;;;3.93;2.90;;;;;;;;;;5038335;28;20239;-57
2023/01/28 00:13:52;;;;;;;3.93;2.87;;;;;;;;;;5038401;28;20786;-54
2023/01/28 00:16:19;;;;;;;8.27;3.47;;;;;;;;;;5041163;28;20239;-53
2023/01/28 00:18:45;;;;;;;8.23;3.77;;;;;;;;;;5034356;28;20259;-53
2023/01/28 00:21:14;;;;;;;6.77;3.47;;;;;;;;;;5037690;28;20588;-54
2023/01/28 00:23:41;;;;;;;6.27;3.77;;;;;;;;;;5037600;28;20238;-53
2023/01/28 00:26:10;;;;;;;5.03;3.60;;;;;;;;;;5040254;28;20250;-57
2023/01/28 00:28:36;;;;;;;6.57;4.00;;;;;;;;;;5045524;28;20265;-54
2023/01/28 00:31:08;;;;;;;6.70;3.67;;;;;;;;;;5034182;28;20557;-53
2023/01/28 00:33:34;;;;;;;4.00;2.57;;;;;;;;;;5041433;28;20235;-58
2023/01/28 00:36:01;;;;;;;3.90;3.37;;;;;;;;;;5045216;28;20238;-54
2023/01/28 00:38:28;;;;;;;3.47;2.30;;;;;;;;;;5046646;28;20220;-55
2023/01/28 00:40:54;;;;;;;3.73;2.73;;;;;;;;;;5041044;28;20238;-54
2023/01/28 00:43:20;;;;;;;2.97;2.67;;;;;;;;;;5039846;28;20239;-53
2023/01/28 00:45:47;;;;;;;6.70;3.40;;;;;;;;;;5043191;28;20303;-55
2023/01/28 00:48:14;;;;;;;2.90;2.60;;;;;;;;;;5049761;28;20326;-55
2023/01/28 00:50:41;;;;;;;6.27;2.50;;;;;;;;;;5055079;28;20245;-54
2023/01/28 00:53:07;;;;;;;2.83;2.50;;;;;;;;;;5048226;28;20321;-54
2023/01/28 00:55:34;;;;;;;3.40;2.83;;;;;;;;;;5038519;28;20326;-56
2023/01/28 00:58:00;;;;;;;3.77;2.50;;;;;;;;;;5033803;28;20258;-54
2023/01/28 01:00:26;;;;;;;3.73;2.30;;;;;;;;;;5038701;28;20271;-53
2023/01/28 01:02:53;;;;;;;6.50;2.97;;;;;;;;;;5045185;28;20239;-53
2023/01/28 01:05:21;;;;;;;4.10;2.83;;;;;;;;;;5042087;28;20231;-53
2023/01/28 01:07:47;;;;;;;5.60;2.97;;;;;;;;;;5038959;28;20254;-53
2023/01/28 01:10:15;;;;;;;3.43;3.10;;;;;;;;;;5036528;28;20327;-53
2023/01/28 01:12:41;;;;;;;5.63;2.87;;;;;;;;;;5033256;28;20242;-53
2023/01/28 01:15:09;;;;;;;6.20;3.23;;;;;;;;;;5037673;28;20319;-61
2023/01/28 01:17:36;;;;;;;4.30;3.80;;;;;;;;;;5036889;28;20321;-53
2023/01/28 01:20:03;;;;;;;6.50;3.77;;;;;;;;;;5042315;28;20231;-54
2023/01/28 01:22:32;;;;;;;5.93;4.53;;;;;;;;;;5036764;28;20347;-54
2023/01/28 01:24:58;;;;;;;6.97;3.77;;;;;;;;;;5036299;28;20239;-53
2023/01/28 01:27:25;;;;;;;7.50;3.77;;;;;;;;;;5031553;28;20245;-52
2023/01/28 01:29:51;;;;;;;4.37;3.63;;;;;;;;;;5036075;28;20744;-56
2023/01/28 01:32:18;;;;;;;4.13;3.73;;;;;;;;;;5034272;28;20261;-53
2023/01/28 01:34:45;;;;;;;8.13;3.70;;;;;;;;;;5036354;28;20232;-53
2023/01/28 01:37:11;;;;;;;7.40;4.23;;;;;;;;;;5035141;28;20241;-53
2023/01/28 01:39:39;;;;;;;7.10;3.87;;;;;;;;;;5030911;28;20237;-53
2023/01/28 01:42:05;;;;;;;8.30;3.90;;;;;;;;;;5035048;28;20243;-54
2023/01/28 01:44:51;;;;;;;5.90;4.33;;;;;;;;;;5039235;28;20254;-52
2023/01/28 01:47:17;;;;;;;3.70;3.30;;;;;;;;;;5047627;28;20238;-53
2023/01/28 01:49:44;;;;;;;4.47;3.33;;;;;;;;;;5047997;28;20228;-54
2023/01/28 01:52:12;;;;;;;5.40;3.17;;;;;;;;;;5034784;28;20244;-54
2023/01/28 01:54:42;;;;;;;3.43;2.63;;;;;;;;;;5045348;28;20235;-53
2023/01/28 01:57:09;;;;;;;3.37;2.90;;;;;;;;;;5045445;28;20242;-53
2023/01/28 01:59:36;;;;;;;2.50;2.30;;;;;;;;;;5044516;28;20238;-53
2023/01/28 02:02:04;;;;;;;3.43;2.40;;;;;;;;;;5044136;28;20314;-54
2023/01/28 02:04:31;;;;;;;7.93;2.50;;;;;;;;;;5041308;28;20224;-53
2023/01/28 02:06:59;;;;;;;4.77;2.37;;;;;;;;;;5047632;28;20325;-55
2023/01/28 02:09:26;;;;;;;4.57;2.83;;;;;;;;;;5049896;28;20230;-52
2023/01/28 02:11:56;;;;;;;6.57;3.10;;;;;;;;;;5043093;28;20783;-53
2023/01/28 02:14:23;;;;;;;3.80;2.03;;;;;;;;;;5051121;28;20222;-53
2023/01/28 02:16:50;;;;;;;10.87;3.20;;;;;;;;;;5046941;28;20595;-55
2023/01/28 02:19:17;;;;;;;2.70;1.97;;;;;;;;;;5040001;28;20236;-53
2023/01/28 02:22:05;;;;;;;5.20;2.83;;;;;;;;;;5034314;28;20329;-54
2023/01/28 02:24:45;;;;;;;4.00;2.37;;;;;;;;;;5033736;28;20235;-54
2023/01/28 02:27:18;;;;;;;4.57;2.90;;;;;;;;;;5035584;28;20237;-53
2023/01/28 02:29:50;;;;;;;5.87;2.57;;;;;;;;;;5033655;28;20233;-52
2023/01/28 02:32:19;;;;;;;3.60;2.63;;;;;;;;;;5037749;28;20242;-54
2023/01/28 02:34:47;;;;;;;4.67;2.63;;;;;;;;;;5044920;28;20645;-52
2023/01/28 02:37:15;;;;;;;4.03;2.43;;;;;;;;;;5035376;28;20234;-53
2023/01/28 02:39:43;;;;;;;3.10;2.50;;;;;;;;;;5041473;28;20718;-54
2023/01/28 02:42:12;;;;;;;4.03;2.17;;;;;;;;;;5042006;28;20239;-53
2023/01/28 02:44:38;;;;;;;4.03;2.17;;;;;;;;;;5041143;28;20227;-52
2023/01/28 02:49:55;;;;;;;5.47;2.60;;;;;;;;;;5035952;28;20273;-52
2023/01/28 02:55:09;;;;;;;4.47;2.70;;;;;;;;;;5037677;28;20315;-57
2023/01/28 02:57:38;;;;;;;5.57;2.50;;;;;;;;;;5041186;28;20267;-53
2023/01/28 03:00:10;;;;;;;4.57;2.50;;;;;;;;;;5043421;28;20276;-53
2023/01/28 03:02:42;;;;;;;3.43;2.40;;;;;;;;;;5047516;28;20262;-54
2023/01/28 03:05:11;;;;;;;4.43;3.43;;;;;;;;;;5038734;28;20245;-53
2023/01/28 03:07:38;;;;;;;2.83;2.27;;;;;;;;;;5042108;28;20251;-53
2023/01/28 03:10:05;;;;;;;4.80;2.77;;;;;;;;;;5043427;28;20343;-54
2023/01/28 03:37:28;;;;;;;7.23;2.63;;;;;;;;;;5046092;28;20257;-54
2023/01/28 03:39:57;;;;;;;8.33;3.40;;;;;;;;;;5044952;28;20850;-53
2023/01/28 03:42:24;;;;;;;4.07;2.53;;;;;;;;;;5043955;28;21550;-53
2023/01/28 03:44:50;;;;;;;5.97;3.43;;;;;;;;;;5046056;28;20255;-52
2023/01/28 03:47:17;;;;;;;4.93;2.67;;;;;;;;;;5042608;28;20242;-52
2023/01/28 03:49:47;;;;;;;2.73;2.00;;;;;;;;;;5030625;28;20778;-53
2023/01/28 03:52:15;;;;;;;3.53;2.10;;;;;;;;;;5036776;28;20235;-53
2023/01/28 03:54:41;;;;;;;4.20;2.77;;;;;;;;;;5029701;28;20223;-53
2023/01/28 03:57:08;;;;;;;5.47;2.87;;;;;;;;;;5036509;28;20300;-55
2023/01/28 03:59:34;;;;;;;3.77;2.40;;;;;;;;;;5038145;28;20254;-53
2023/01/28 04:02:02;;;;;;;5.10;3.17;;;;;;;;;;5039333;28;20266;-53
2023/01/28 04:04:31;;;;;;;4.30;2.80;;;;;;;;;;5035460;28;20239;-54
2023/01/28 04:06:59;;;;;;;5.53;2.90;;;;;;;;;;5042541;28;20235;-53
2023/01/28 04:09:26;;;;;;;3.90;2.70;;;;;;;;;;5033329;28;20288;-53
2023/01/28 04:11:52;;;;;;;3.83;2.20;;;;;;;;;;5029608;28;20239;-52
2023/01/28 04:14:19;;;;;;;4.23;2.30;;;;;;;;;;5035612;28;20696;-53
2023/01/28 04:16:45;;;;;;;4.57;2.67;;;;;;;;;;5034721;28;20242;-51
2023/01/28 04:19:12;;;;;;;3.77;2.37;;;;;;;;;;5042687;28;20281;-52
2023/01/28 04:21:39;;;;;;;3.83;2.50;;;;;;;;;;5034113;28;20235;-53
2023/01/28 04:24:07;;;;;;;2.57;2.00;;;;;;;;;;5020560;28;20242;-52
2023/01/28 04:26:34;;;;;;;3.30;2.37;;;;;;;;;;5020606;28;20239;-53
2023/01/28 04:29:00;;;;;;;2.60;2.07;;;;;;;;;;5037878;28;20229;-53
2023/01/28 04:31:27;;;;;;;2.73;2.07;;;;;;;;;;5036249;28;20771;-53
2023/01/28 04:33:53;;;;;;;2.23;2.13;;;;;;;;;;5041591;28;20334;-53
2023/01/28 04:36:20;;;;;;;2.33;1.90;;;;;;;;;;5051534;28;20238;-59
2023/01/28 04:38:46;;;;;;;3.67;2.20;;;;;;;;;;5052413;28;20223;-54
2023/01/28 04:41:14;;;;;;;3.53;1.80;;;;;;;;;;5048570;28;20304;-53
2023/01/28 04:43:41;;;;;;;5.13;1.80;;;;;;;;;;5043997;28;20316;-52
2023/01/28 04:46:07;;;;;;;3.23;2.37;;;;;;;;;;5042112;28;20247;-53
2023/01/28 04:48:35;;;;;;;2.40;2.03;;;;;;;;;;5042227;28;20235;-52
2023/01/28 04:51:02;;;;;;;2.50;2.10;;;;;;;;;;5041903;28;20317;-54
2023/01/28 04:53:28;;;;;;;2.30;2.10;;;;;;;;;;5039466;28;20237;-53
2023/01/28 04:55:55;;;;;;;2.77;1.97;;;;;;;;;;5040601;28;20356;-58
2023/01/28 04:58:23;;;;;;;6.10;1.97;;;;;;;;;;5051408;28;20808;-55
2023/01/28 05:00:53;;;;;;;7.00;1.87;;;;;;;;;;5045492;28;20292;-59
2023/01/28 05:03:19;;;;;;;4.83;2.30;;;;;;;;;;5050373;28;20233;-53
2023/01/28 05:05:46;;;;;;;2.40;2.20;;;;;;;;;;5039026;28;20240;-52
2023/01/28 05:08:12;;;;;;;3.90;1.90;;;;;;;;;;5026916;28;20260;-53
2023/01/28 05:10:39;;;;;;;2.80;1.77;;;;;;;;;;5037806;28;20260;-53
2023/01/28 05:13:05;;;;;;;3.07;1.97;;;;;;;;;;5037752;28;20242;-52
2023/01/28 05:15:33;;;;;;;3.40;2.10;;;;;;;;;;5034616;28;20292;-52
2023/01/28 05:18:00;;;;;;;3.63;2.10;;;;;;;;;;5037347;28;20247;-53
2023/01/28 05:20:26;;;;;;;3.43;2.10;;;;;;;;;;5031523;28;20278;-52
2023/01/28 05:22:53;;;;;;;2.07;1.90;;;;;;;;;;5029204;28;20725;-54
2023/01/28 05:25:19;;;;;;;2.87;2.17;;;;;;;;;;5032636;28;20247;-54
2023/01/28 05:27:49;;;;;;;2.37;2.17;;;;;;;;;;5041627;28;20733;-53
2023/01/28 05:30:16;;;;;;;2.80;2.40;;;;;;;;;;5044552;28;20245;-53
2023/01/28 05:32:44;;;;;;;6.50;3.53;;;;;;;;;;5043477;28;20230;-54
2023/01/28 05:35:11;;;;;;;3.80;2.90;;;;;;;;;;5038372;28;20704;-53
2023/01/28 05:37:37;;;;;;;3.73;3.33;;;;;;;;;;5040707;28;20325;-52
2023/01/28 05:40:04;;;;;;;4.53;4.13;;;;;;;;;;5042621;28;20231;-53
2023/01/28 05:42:31;;;;;;;3.00;2.70;;;;;;;;;;5039407;28;20235;-53
2023/01/28 05:44:57;;;;;;;6.63;2.90;;;;;;;;;;5039677;28;20646;-54
2023/01/28 05:47:24;;;;;;;2.87;2.43;;;;;;;;;;5040218;28;20245;-53
2023/01/28 05:49:52;;;;;;;3.93;2.33;;;;;;;;;;5038666;28;20238;-52
2023/01/28 05:52:19;;;;;;;5.27;2.63;;;;;;;;;;5034922;28;20461;-53
2023/01/28 05:54:45;;;;;;;4.20;3.23;;;;;;;;;;5041144;28;20242;-53
2023/01/28 05:57:12;;;;;;;4.47;3.97;;;;;;;;;;5033921;28;20320;-52
2023/01/28 05:59:38;;;;;;;5.40;2.70;;;;;;;;;;5039774;28;20258;-54
2023/01/28 06:02:05;;;;;;;5.63;2.80;;;;;;;;;;5038580;28;20709;-54
2023/01/28 06:04:32;;;;;;;4.33;3.37;;;;;;;;;;5038585;28;20239;-52
2023/01/28 06:06:59;;;;;;;4.27;3.37;;;;;;;;;;5033169;28;20263;-53
2023/01/28 06:09:26;;;;;;;4.17;3.77;;;;;;;;;;5031905;28;20610;-53
2023/01/28 06:11:53;;;;;;;4.10;3.60;;;;;;;;;;5043707;28;20326;-52
2023/01/28 06:14:19;;;;;;;6.60;4.00;;;;;;;;;;5034685;28;20239;-53
2023/01/28 06:16:46;;;;;;;4.53;3.40;;;;;;;;;;5044264;28;20276;-53
2023/01/28 06:19:12;;;;;;;6.80;4.60;;;;;;;;;;5035151;28;20258;-54
2023/01/28 06:21:39;;;;;;;8.93;5.33;;;;;;;;;;5029534;28;20287;-52
2023/01/28 06:24:07;;;;;;;6.20;4.57;;;;;;;;;;5033594;28;20265;-55
2023/01/28 06:26:34;;;;;;;6.43;4.50;;;;;;;;;;5043440;28;20242;-52
2023/01/28 06:29:01;;;;;;;6.20;4.60;;;;;;;;;;5042610;28;20231;-53
2023/01/28 06:31:27;;;;;;;5.73;4.63;;;;;;;;;;5043312;28;20247;-53
2023/01/28 06:33:54;;;;;;;7.07;4.60;;;;;;;;;;5046886;28;20325;-52
2023/01/28 06:36:20;;;;;;;6.67;5.03;;;;;;;;;;5044127;28;20318;-52
2023/01/28 06:38:47;;;;;;;7.40;5.73;;;;;;;;;;5044416;28;20235;-54
2023/01/28 06:41:15;;;;;;;7.73;5.87;;;;;;;;;;5046434;28;20227;-54
2023/01/28 06:43:42;;;;;;;11.23;5.97;;;;;;;;;;5043203;28;20317;-52
2023/01/28 06:46:08;;;;;;;7.37;5.37;;;;;;;;;;5043701;28;20242;-54
2023/01/28 06:48:35;;;;;;;8.03;4.63;;;;;;;;;;5039498;28;20307;-52
2023/01/28 06:51:01;;;;;;;7.37;5.03;;;;;;;;;;5040755;28;20666;-53
2023/01/28 06:53:28;;;;;;;5.10;4.07;;;;;;;;;;5041184;28;20621;-53
2023/01/28 06:55:54;;;;;;;4.57;3.57;;;;;;;;;;5038554;28;20293;-53
2023/01/28 06:58:22;;;;;;;3.20;2.90;;;;;;;;;;5034469;28;20247;-53
2023/01/28 07:00:49;;;;;;;3.87;2.97;;;;;;;;;;5036177;28;20335;-53
2023/01/28 07:03:16;;;;;;;4.17;2.33;;;;;;;;;;5031946;28;20233;-53
2023/01/28 07:05:42;;;;;;;2.13;1.60;;;;;;;;;;5039472;28;20635;-52
2023/01/28 07:08:09;;;;;;;2.27;2.07;;;;;;;;;;5041275;28;20647;-53
2023/01/28 07:10:36;;;;;;;2.30;2.07;;;;;;;;;;5029142;28;20231;-53
2023/01/28 07:13:02;;;;;;;2.20;2.00;;;;;;;;;;5039612;28;20235;-53
2023/01/28 07:15:30;;;;;;;4.13;2.43;;;;;;;;;;5039055;28;20258;-53
2023/01/28 07:17:57;;;;;;;3.20;2.67;;;;;;;;;;5035936;28;20262;-55
2023/01/28 07:20:23;;;;;;;4.07;2.73;;;;;;;;;;5043352;28;20724;-53
2023/01/28 07:22:50;;;;;;;3.00;2.17;;;;;;;;;;5043986;28;20235;-55
2023/01/28 07:25:16;;;;;;;2.77;1.97;;;;;;;;;;5040451;28;20239;-52
2023/01/28 07:27:46;;;;;;;2.47;1.57;;;;;;;;;;5041249;28;20285;-52
2023/01/28 07:30:13;;;;;;;3.60;2.03;;;;;;;;;;5039105;28;20236;-53
2023/01/28 07:32:41;;;;;;;2.03;1.93;;;;;;;;;;5055033;28;20231;-53
2023/01/28 07:35:08;;;;;;;2.10;1.70;;;;;;;;;;5054338;28;20238;-53
2023/01/28 07:37:34;;;;;;;2.23;1.93;;;;;;;;;;5056314;28;20291;-53
2023/01/28 07:40:01;;;;;;;2.00;1.80;;;;;;;;;;5063250;28;20294;-53
2023/01/28 07:42:27;;;;;;;3.07;1.57;;;;;;;;;;5050620;28;20684;-53
2023/01/28 07:44:54;;;;;;;2.43;2.07;;;;;;;;;;5052142;28;20230;-54
2023/01/28 07:47:20;;;;;;;3.23;2.17;;;;;;;;;;5050048;28;20309;-52
2023/01/28 07:49:48;;;;;;;2.30;1.27;;;;;;;;;;5044557;28;20231;-53
2023/01/28 07:52:15;;;;;;;2.57;1.40;;;;;;;;;;5040499;28;20244;-53
2023/01/28 07:54:41;;;;;;;1.70;1.33;;;;;;;;;;5043230;28;20269;-53
2023/01/28 07:57:09;;;;;;;3.13;1.03;;;;;;;;;;5049341;28;20321;-52
2023/01/28 07:59:36;;;;;;;1.17;1.07;;;;;;;;;;5041865;28;20241;-55
2023/01/28 08:02:02;;;;;;;0.93;0.93;;;;;;;;;;5042827;28;20272;-52
2023/01/28 08:04:29;;;;;;;1.63;1.33;;;;;;;;;;5037808;28;20790;-52
2023/01/28 08:06:57;;;;;;;0.90;0.90;;;;;;;;;;5038002;28;20612;-53
2023/01/28 08:09:24;;;;;;;1.57;1.20;;;;;;;;;;5050583;28;20239;-57
2023/01/28 08:11:50;;;;;;;3.47;2.03;;;;;;;;;;5045501;28;20230;-53
2023/01/28 08:14:17;;;;;;;2.90;2.07;;;;;;;;;;5044634;28;20250;-53
2023/01/28 08:16:43;;;;;;;3.20;1.60;;;;;;;;;;5036993;28;20249;-53
2023/01/28 08:19:10;;;;;;;2.33;1.60;;;;;;;;;;5052828;28;20242;-52
2023/01/28 08:21:36;;;;;;;2.53;1.80;;;;;;;;;;5057728;28;20436;-53
2023/01/28 08:24:04;;;;;;;1.73;1.27;;;;;;;;;;5047392;28;20243;-52
2023/01/28 08:26:31;;;;;;;1.70;1.10;;;;;;;;;;5047190;28;20238;-52
2023/01/28 08:28:58;;;;;;;1.50;1.40;;;;;;;;;;5042724;28;20241;-53
2023/01/28 08:31:24;;;;;;;1.83;1.67;;;;;;;;;;5036822;28;20243;-53
2023/01/28 08:33:50;;;;;;;4.00;2.00;;;;;;;;;;5039754;28;20226;-53
2023/01/28 08:36:18;;;;;;;1.90;1.40;;;;;;;;;;5044581;28;20272;-54
2023/01/28 08:38:44;;;;;;;2.07;1.10;;;;;;;;;;5041964;28;20266;-52
2023/01/28 08:41:12;;;;;;;1.73;0.80;;;;;;;;;;5045515;28;20259;-53
2023/01/28 08:43:39;;;;;;;2.70;1.47;;;;;;;;;;5043848;28;20290;-53
2023/01/28 08:46:06;;;;;;;2.30;1.50;;;;;;;;;;5040866;28;20243;-52
2023/01/28 08:48:32;;;;;;;2.87;1.40;;;;;;;;;;5039769;28;20707;-53
2023/01/28 08:50:59;;;;;;;1.67;1.40;;;;;;;;;;5039978;28;20293;-53
2023/01/28 08:53:26;;;;;;;3.40;1.70;;;;;;;;;;5036034;28;20322;-53
2023/01/28 08:55:53;;;;;;;2.77;1.27;;;;;;;;;;5034292;28;20768;-53
2023/01/28 08:58:21;;;;;;;3.13;1.40;;;;;;;;;;5033379;28;20232;-54
2023/01/28 09:00:48;;;;;;;0.73;0.73;;;;;;;;;;5041144;28;20232;-53
2023/01/28 09:03:14;;;;;;;1.33;1.03;;;;;;;;;;5030073;28;20231;-53
2023/01/28 09:05:41;;;;;;;1.40;0.80;;;;;;;;;;5034194;28;20232;-54
2023/01/28 09:08:08;;;;;;;1.17;1.10;;;;;;;;;;5033192;28;20246;-53
2023/01/28 09:10:36;;;;;;;3.97;1.87;;;;;;;;;;5042343;28;20251;-54
2023/01/28 09:13:04;;;;;;;1.53;1.30;;;;;;;;;;5030978;28;20426;-54
2023/01/28 09:15:32;;;;;;;1.37;1.00;;;;;;;;;;5040204;28;20314;-53
2023/01/28 09:17:58;;;;;;;1.20;1.10;;;;;;;;;;5043767;28;20239;-53
2023/01/28 09:20:25;;;;;;;3.00;1.40;;;;;;;;;;5043556;28;20640;-53
2023/01/28 09:22:51;;;;;;;1.70;1.13;;;;;;;;;;5038467;28;20315;-53
2023/01/28 09:25:18;;;;;;;1.60;1.40;;;;;;;;;;5032146;28;20293;-53
2023/01/28 09:27:44;;;;;;;2.93;1.47;;;;;;;;;;5037477;28;20603;-53
2023/01/28 09:30:12;;;;;;;2.77;1.60;;;;;;;;;;5038013;28;20865;-52
2023/01/28 09:32:40;;;;;;;2.83;1.20;;;;;;;;;;5044331;28;20312;-52
2023/01/28 09:35:06;;;;;;;2.50;1.77;;;;;;;;;;5043950;28;20299;-55
2023/01/28 09:37:33;;;;;;;1.40;1.10;;;;;;;;;;5043916;28;20250;-53
2023/01/28 09:39:59;;;;;;;1.10;1.00;;;;;;;;;;5043460;28;20705;-54
2023/01/28 09:42:37;;;;;;;1.17;0.83;;;;;;;;;;5042806;28;20244;-54
2023/01/28 09:45:10;;;;;;;2.90;1.20;;;;;;;;;;5043006;28;20710;-53
2023/01/28 09:47:39;;;;;;;1.13;0.83;;;;;;;;;;5035864;28;20352;-52
2023/01/28 09:50:09;;;;;;;1.37;1.13;;;;;;;;;;5031859;28;20240;-56
2023/01/28 09:52:37;;;;;;;2.27;1.40;;;;;;;;;;5030215;28;20231;-53
2023/01/28 09:55:04;;;;;;;3.27;1.13;;;;;;;;;;5039898;28;20230;-53
2023/01/28 09:57:36;;;;;;;2.33;1.60;;;;;;;;;;5034612;28;20243;-53
2023/01/28 10:00:03;;;;;;;1.27;0.93;;;;;;;;;;5036912;28;20236;-53
2023/01/28 10:02:37;;;;;;;1.13;0.97;;;;;;;;;;5042727;28;20289;-54
2023/01/28 10:05:13;;;;;;;1.00;0.90;;;;;;;;;;5042755;28;20602;-54
2023/01/28 10:07:42;;;;;;;1.17;1.03;;;;;;;;;;5036969;28;20254;-53
2023/01/28 10:10:11;;;;;;;2.20;1.20;;;;;;;;;;5044013;28;20293;-53
2023/01/28 10:12:53;;;;;;;2.47;1.03;;;;;;;;;;5041396;28;20242;-53
2023/01/28 10:15:34;;;;;;;1.03;0.80;;;;;;;;;;5041952;28;20301;-53
2023/01/28 10:18:02;;;;;;;0.80;0.80;;;;;;;;;;5047098;28;20231;-55
2023/01/28 10:20:31;;;;;;;1.10;1.00;;;;;;;;;;5047899;28;20234;-52
2023/01/28 10:23:05;;;;;;;0.73;0.73;;;;;;;;;;5037796;28;20705;-52
2023/01/28 10:25:32;;;;;;;2.47;1.10;;;;;;;;;;5034220;28;20242;-53
2023/01/28 10:28:00;;;;;;;2.90;1.07;;;;;;;;;;5038428;28;20260;-53
2023/01/28 10:30:28;;;;;;;0.80;0.80;;;;;;;;;;5039798;28;20245;-55
2023/01/28 10:32:57;;;;;;;2.20;1.00;;;;;;;;;;5039303;28;20242;-54
2023/01/28 10:35:24;;;;;;;1.20;1.10;;;;;;;;;;5045395;28;20234;-55
2023/01/28 10:37:52;;;;;;;0.87;0.80;;;;;;;;;;5045338;28;20506;-53
2023/01/28 10:40:20;;;;;;;1.43;0.87;;;;;;;;;;5036396;28;20733;-54
2023/01/28 10:42:46;;;;;;;2.97;1.30;;;;;;;;;;5034616;28;20705;-53
2023/01/28 10:45:17;;;;;;;1.20;1.10;;;;;;;;;;5042825;28;20235;-53
2023/01/28 10:47:46;;;;;;;1.67;1.40;;;;;;;;;;5042897;28;20232;-53
2023/01/28 10:50:15;;;;;;;2.17;1.20;;;;;;;;;;5035514;28;20851;-53
2023/01/28 10:52:51;;;;;;;0.87;0.83;;;;;;;;;;5045915;28;20242;-52
2023/01/28 10:55:19;;;;;;;0.80;0.80;;;;;;;;;;5039969;28;20296;-53
2023/01/28 10:57:46;;;;;;;1.83;1.27;;;;;;;;;;5040721;28;20245;-54
2023/01/28 11:00:22;;;;;;;2.73;1.27;;;;;;;;;;5038040;28;20273;-53
2023/01/28 11:02:49;;;;;;;1.37;1.27;;;;;;;;;;5040641;28;20314;-53
2023/01/28 11:05:17;;;;;;;2.53;1.57;;;;;;;;;;5033591;28;20314;-53
2023/01/28 11:07:44;;;;;;;1.40;1.30;;;;;;;;;;5019721;28;20236;-55
2023/01/28 11:10:31;;;;;;;1.27;1.17;;;;;;;;;;5028345;28;20255;-54
2023/01/28 11:12:57;;;;;;;2.30;1.40;;;;;;;;;;5035832;28;20248;-53
2023/01/28 11:15:24;;;;;;;1.47;1.10;;;;;;;;;;5033387;28;20735;-53
2023/01/28 11:17:52;;;;;;;2.47;1.70;;;;;;;;;;5039359;28;20297;-57
2023/01/28 11:20:20;;;;;;;3.20;0.90;;;;;;;;;;5045851;28;20227;-52
2023/01/28 11:22:47;;;;;;;1.20;1.10;;;;;;;;;;5040748;28;20228;-53
2023/01/28 11:25:16;;;;;;;3.00;0.90;;;;;;;;;;5049057;28;20251;-53
2023/01/28 11:27:46;;;;;;;2.47;0.80;;;;;;;;;;5053064;28;20272;-54
2023/01/28 11:30:20;;;;;;;1.17;0.80;;;;;;;;;;5049875;28;20231;-52
2023/01/28 11:32:53;;;;;;;1.23;0.80;;;;;;;;;;5044359;28;20231;-55
2023/01/28 11:35:26;;;;;;;0.80;0.70;;;;;;;;;;5042234;28;20249;-52
2023/01/28 11:37:53;;;;;;;2.03;0.60;;;;;;;;;;5033469;28;20958;-52
2023/01/28 11:40:20;;;;;;;0.97;0.80;;;;;;;;;;5038445;28;20251;-53
2023/01/28 11:42:48;;;;;;;0.87;0.83;;;;;;;;;;5039450;28;20243;-54
2023/01/28 11:45:15;;;;;;;0.93;0.87;;;;;;;;;;5042454;28;20246;-52
2023/01/28 11:47:47;;;;;;;1.00;0.97;;;;;;;;;;5034515;28;20233;-53
2023/01/28 11:50:26;;;;;;;1.50;1.03;;;;;;;;;;5040208;28;20238;-52
2023/01/28 11:53:00;;;;;;;1.60;1.30;;;;;;;;;;5042541;28;20235;-54
2023/01/28 11:55:37;;;;;;;1.40;1.30;;;;;;;;;;5041013;28;20231;-53
2023/01/28 11:58:08;;;;;;;1.07;0.97;;;;;;;;;;5035483;28;20247;-54
2023/01/28 12:00:38;;;;;;;1.60;1.07;;;;;;;;;;5037250;28;20231;-52
2023/01/28 12:03:13;;;;;;;1.60;1.27;;;;;;;;;;5044719;28;20686;-52
2023/01/28 12:05:47;;;;;;;1.60;1.00;;;;;;;;;;5043830;28;20259;-53
2023/01/28 12:08:18;;;;;;;1.30;1.07;;;;;;;;;;5042580;28;20235;-52
2023/01/28 12:10:48;;;;;;;1.03;1.03;;;;;;;;;;5042162;28;20358;-53
2023/01/28 12:13:24;;;;;;;2.83;1.23;;;;;;;;;;5042970;28;20681;-52
2023/01/28 12:15:58;;;;;;;3.20;1.10;;;;;;;;;;5042424;28;20265;-52
2023/01/28 12:18:30;;;;;;;3.97;1.10;;;;;;;;;;5042578;28;20238;-54
2023/01/28 12:21:07;;;;;;;1.47;0.80;;;;;;;;;;5045810;28;20293;-52
2023/01/28 12:23:39;;;;;;;1.00;0.80;;;;;;;;;;5039700;28;21095;-52
2023/01/28 12:26:09;;;;;;;2.10;1.10;;;;;;;;;;5036017;28;20265;-52
2023/01/28 12:28:48;;;;;;;1.10;1.00;;;;;;;;;;5043921;28;20234;-53
2023/01/28 12:31:27;;;;;;;1.43;0.93;;;;;;;;;;5044916;28;20238;-52
2023/01/28 12:34:04;;;;;;;1.13;1.07;;;;;;;;;;5036873;28;20243;-53
2023/01/28 12:36:38;;;;;;;1.07;1.00;;;;;;;;;;5036054;28;20266;-53
2023/01/28 12:39:09;;;;;;;3.10;1.10;;;;;;;;;;5033691;28;20244;-54
2023/01/28 12:41:37;;;;;;;1.43;1.13;;;;;;;;;;5035067;28;20231;-52
2023/01/28 12:44:06;;;;;;;1.27;1.17;;;;;;;;;;5023142;28;20249;-53
2023/01/28 12:46:39;;;;;;;1.17;1.00;;;;;;;;;;5032846;28;20263;-53
2023/01/28 12:49:06;;;;;;;1.27;0.90;;;;;;;;;;5034439;28;20259;-53
2023/01/28 12:51:38;;;;;;;1.07;1.00;;;;;;;;;;5032551;28;20233;-53
2023/01/28 12:54:07;;;;;;;1.07;0.80;;;;;;;;;;5040803;28;20245;-52
2023/01/28 12:56:34;;;;;;;1.53;1.00;;;;;;;;;;5041732;28;20239;-53
2023/01/28 12:59:03;;;;;;;1.20;1.00;;;;;;;;;;5043497;28;20611;-53
2023/01/28 13:01:35;;;;;;;1.33;1.17;;;;;;;;;;5044385;28;20309;-53
2023/01/28 13:04:06;;;;;;;1.60;1.10;;;;;;;;;;5045681;28;20238;-53
2023/01/28 13:06:35;;;;;;;1.90;0.97;;;;;;;;;;5020579;28;21448;-52
2023/01/28 13:09:03;;;;;;;1.00;1.00;;;;;;;;;;5007583;28;20800;-53
2023/01/28 13:11:32;;;;;;;1.10;1.00;;;;;;;;;;5012864;28;20312;-53
2023/01/28 13:13:59;;;;;;;1.67;1.10;;;;;;;;;;5009871;28;20269;-53
2023/01/28 13:16:25;;;;;;;1.83;0.70;;;;;;;;;;5014647;28;20339;-55
2023/01/28 13:19:04;;;;;;;1.20;0.77;;;;;;;;;;5040497;28;20747;-55
2023/01/28 13:21:32;;;;;;;3.70;0.60;;;;;;;;;;5032893;28;20235;-54
2023/01/28 13:24:13;;;;;;;1.27;1.00;;;;;;;;;;5032184;28;20261;-53
2023/01/28 13:26:43;;;;;;;1.13;0.70;;;;;;;;;;5041928;28;20230;-52
2023/01/28 13:29:28;;;;;;;0.60;0.60;;;;;;;;;;5042208;28;20242;-53
2023/01/28 13:31:55;;;;;;;1.30;0.60;;;;;;;;;;5031437;28;20248;-52
2023/01/28 13:34:32;;;;;;;0.47;0.47;;;;;;;;;;5045287;28;20242;-52
2023/01/28 13:37:00;;;;;;;6.43;1.07;;;;;;;;;;5044951;28;20316;-54
2023/01/28 13:39:27;;;;;;;1.00;0.63;;;;;;;;;;5049398;28;20230;-53
2023/01/28 13:41:55;;;;;;;2.90;0.77;;;;;;;;;;5041465;28;20317;-53
2023/01/28 13:44:26;;;;;;;2.67;1.00;;;;;;;;;;5042991;28;20238;-53
2023/01/28 13:46:53;;;;;;;0.90;0.90;;;;;;;;;;5037868;28;20231;-52
2023/01/28 13:49:23;;;;;;;1.00;0.70;;;;;;;;;;5039235;28;20238;-52
2023/01/28 13:51:56;;;;;;;3.07;0.87;;;;;;;;;;5029649;28;20237;-52
2023/01/28 13:54:23;;;;;;;0.70;0.70;;;;;;;;;;5050086;28;20245;-56
2023/01/28 13:56:57;;;;;;;0.90;0.90;;;;;;;;;;5052321;28;20249;-53
2023/01/28 13:59:31;;;;;;;4.20;0.70;;;;;;;;;;5055340;28;20299;-54
2023/01/28 14:02:15;;;;;;;1.57;1.00;;;;;;;;;;5049919;28;20311;-52
2023/01/28 14:04:48;;;;;;;0.63;0.63;;;;;;;;;;5054123;28;20254;-52
2023/01/28 14:07:40;;;;;;;1.13;0.90;;;;;;;;;;5055026;28;20796;-51
2023/01/28 14:10:14;;;;;;;3.47;0.97;;;;;;;;;;5053491;28;20269;-54
2023/01/28 14:12:50;;;;;;;2.17;1.53;;;;;;;;;;5055854;28;20259;-58
2023/01/28 14:15:25;;;;;;;2.33;0.90;;;;;;;;;;5052043;28;20373;-53
2023/01/28 14:17:53;;;;;;;2.80;0.90;;;;;;;;;;5054735;28;20290;-54
2023/01/28 14:20:20;;;;;;;0.90;0.90;;;;;;;;;;5055183;28;20329;-53
2023/01/28 14:22:48;;;;;;;1.00;0.90;;;;;;;;;;5054820;28;20239;-53
2023/01/28 14:25:16;;;;;;;2.20;0.80;;;;;;;;;;5053125;28;20326;-52
2023/01/28 14:27:44;;;;;;;0.80;0.80;;;;;;;;;;5041120;28;20247;-53
2023/01/28 14:30:15;;;;;;;1.37;1.17;;;;;;;;;;5049208;28;20905;-53
2023/01/28 14:32:46;;;;;;;3.33;1.30;;;;;;;;;;5047797;28;20232;-52
2023/01/28 14:35:16;;;;;;;1.17;1.07;;;;;;;;;;5037638;28;20257;-53
2023/01/28 14:37:42;;;;;;;1.27;0.90;;;;;;;;;;5043825;28;20322;-51
2023/01/28 14:40:14;;;;;;;1.10;0.90;;;;;;;;;;5048080;28;20249;-53
2023/01/28 14:42:42;;;;;;;1.83;1.00;;;;;;;;;;5046876;28;20759;-53
2023/01/28 14:45:15;;;;;;;1.57;1.20;;;;;;;;;;5050660;28;20235;-53
2023/01/28 14:48:00;;;;;;;1.17;0.90;;;;;;;;;;5046289;28;20228;-53
2023/01/28 14:50:31;;;;;;;1.57;1.10;;;;;;;;;;5045126;28;20241;-53
2023/01/28 14:53:18;;;;;;;1.03;0.97;;;;;;;;;;5040232;28;20242;-52
2023/01/28 14:55:52;;;;;;;1.90;1.27;;;;;;;;;;5039271;28;20226;-52
2023/01/28 14:58:20;;;;;;;1.27;1.07;;;;;;;;;;5040823;28;20662;-52
2023/01/28 15:00:53;;;;;;;4.07;1.20;;;;;;;;;;5045198;28;20227;-52
2023/01/28 15:03:19;;;;;;;2.67;0.90;;;;;;;;;;5042810;28;20306;-52
2023/01/28 15:05:45;;;;;;;1.20;1.00;;;;;;;;;;5038911;28;20369;-52
2023/01/28 15:08:19;;;;;;;2.20;1.00;;;;;;;;;;5043459;28;20238;-52
2023/01/28 15:10:48;;;;;;;2.20;0.90;;;;;;;;;;5047413;28;20318;-53
2023/01/28 15:13:18;;;;;;;3.33;1.03;;;;;;;;;;5047636;28;20231;-53
2023/01/28 15:15:48;;;;;;;0.93;0.80;;;;;;;;;;5047374;28;20318;-53
2023/01/28 15:18:17;;;;;;;2.17;0.93;;;;;;;;;;5046491;28;20243;-53
2023/01/28 15:20:44;;;;;;;0.77;0.77;;;;;;;;;;5046885;28;20234;-53
2023/01/28 15:23:14;;;;;;;0.70;0.70;;;;;;;;;;5048076;28;20874;-52